• Join FlightAware (Why Join?)
  • Login
  • US Flag 
06:57PM EST


 

Airport Tracker/Info


-or-


 

Live Flight TrackerFlight Track Log ✈ SWA1096 ✈ 17-Apr-2013 ✈ KBWI - KMHT

Flight Track Log - Related Links

Times and Time Zones

All times are in EDT time to prevent confusion due to time zone crossing. See the SWA1096 flight status page for this flight to view local times or setup timezone preferences in your user account.

Time Position Orientation Groundspeed Altitude Reporting Facility
EDT Latitude Longitude Course Direction KTS MPH feet Rate Location/Type
03:43PM 39.1333 -76.6333 131° Southeast 183 211 2,000  Level Potomac TRACON
03:44PM 39.1000 -76.5833 131° Southeast 246 283 4,300 2,880 Climbing Potomac TRACON
03:46PM 39.1294 -76.4078 78° East 284 327 10,300 3,000 Climbing Washington Center
03:47PM 39.1447 -76.2875 81° East 306 352 12,900 3,120 Climbing Washington Center
03:48PM 39.1600 -76.1564 81° East 343 395 16,600 3,240 Climbing Washington Center
03:49PM 39.1897 -76.0281 73° East 359 413 19,400 2,700 Climbing Washington Center
03:50PM 39.2567 -75.9186 52° Northeast 366 421 22,100 2,640 Climbing Washington Center
03:51PM 39.3342 -75.8169 45° Northeast 379 436 24,700 2,400 Climbing Washington Center
03:52PM 39.4175 -75.7125 44° Northeast 390 449 26,900 1,920 Climbing Washington Center
03:53PM 39.5011 -75.6078 44° Northeast 402 463 28,600 1,500 Climbing Washington Center
03:54PM 39.5906 -75.4972 44° Northeast 421 484 30,000 1,680 Climbing Washington Center
03:55PM 39.7386 -75.3089 44° Northeast 457 526 33,000 1,800 Climbing New York Center
03:56PM 39.8303 -75.1958 43° Northeast 457 526 34,600 1,500 Climbing New York Center
03:57PM 39.9097 -75.0819 48° Northeast 465 535 36,100 1,140 Climbing New York Center
03:58PM 40.0219 -74.9722 37° Northeast 460 529 37,000 420 Climbing New York Center
03:59PM 40.1300 -74.9219 20° North 431 496 37,000  Level New York Center
04:00PM 40.2422 -74.8742 18° North 418 481 37,000  Level New York Center
04:01PM 40.3542 -74.8292 17° North 418 481 37,000  Level New York Center
04:02PM 40.4642 -74.7836 17° North 413 475 37,000  Level New York Center
04:03PM 40.5719 -74.7381 18° North 408 470 37,000  Level New York Center
04:05PM 40.7928 -74.6442 18° North 418 481 37,000  Level Boston Center
04:06PM 40.9000 -74.5958 19° North 406 467 37,000  Level Boston Center
04:07PM 41.0031 -74.5550 17° North 400 460 37,000  Level Boston Center
04:08PM 41.1142 -74.5092 17° North 405 466 37,000  Level Boston Center
04:09PM 41.2236 -74.4631 18° North 410 472 37,000  Level Boston Center
04:10PM 41.3242 -74.4275 15° North 410 472 37,000  Level Boston Center
04:11PM 41.4419 -74.3731 19° North 403 464 37,000  Level Boston Center
04:12PM 41.5425 -74.3317 17° North 403 464 37,000  Level Boston Center
04:13PM 41.6517 -74.2822 19° North 408 470 37,000 -420 Level Boston Center
04:14PM 41.7650 -74.2353 17° North 413 475 36,200 -1,260 Descending Boston Center
04:15PM 41.8719 -74.1908 17° North 406 467 34,600 -1,560 Descending Boston Center
04:16PM 41.9692 -74.1156 30° Northeast 406 467 33,100 -1,320 Descending Boston Center
04:17PM 42.0356 -73.9803 57° Northeast 395 455 32,000 -1,080 Descending Boston Center
04:18PM 42.1000 -73.8392 58° Northeast 410 472 31,000 -1,560 Descending Boston Center
04:19PM 42.1664 -73.6894 59° Northeast 437 503 29,000 -2,040 Descending Boston Center
04:20PM 42.2261 -73.5617 58° Northeast 437 503 26,900 -2,220 Descending Boston Center
04:21PM 42.2878 -73.4250 59° Northeast 427 491 24,600 -2,100 Descending Boston Center
04:22PM 42.3450 -73.2942 59° Northeast 421 484 22,800 -1,740 Descending Boston Center
04:23PM 42.4086 -73.1572 58° Northeast 408 470 21,100 -1,740 Descending Boston Center
04:24PM 42.4614 -73.0367 59° Northeast 380 437 19,400 -1,080 Descending Boston Center
04:25PM 42.5097 -72.9386 56° Northeast 360 414 19,000 -660 Descending Boston Center
04:26PM 42.5644 -72.8094 60° Northeast 360 414 18,100 -1,080 Descending Boston Center
04:27PM 42.6169 -72.6969 58° Northeast 354 407 16,900 -1,620 Descending Boston Center
04:28PM 42.6669 -72.5897 58° Northeast 348 400 15,000 -2,040 Descending Boston Center
04:29PM 42.7131 -72.4797 60° Northeast 338 389 12,900 -1,860 Descending Boston Center
04:30PM 42.7608 -72.3694 59° Northeast 338 389 11,300 -1,260 Descending Boston Center
04:31PM 42.7942 -72.2844 62° Northeast 333 383 10,400 -1,260 Descending Boston Center
04:32PM 42.8064 -72.1431 83° East 313 360 8,900 -1,380 Descending Boston Center
04:33PM 42.8144 -72.0411 84° East 307 353 7,700 -1,260 Descending Boston Center
04:34PM 42.8139 -71.9222 90° East 291 335 6,400 -1,260 Descending Boston Center
04:35PM 42.8072 -71.8317 96° East 279 321 5,200 -1,260 Descending Boston Center
04:36PM 42.8067 -71.7128 90° East 273 314 4,000 -600 Descending Boston Center
04:37PM 42.8100 -71.6250 87° East 273 314 4,100 -120 Climbing Boston Center
04:38PM 42.8133 -71.5117 88° East 268 308 3,800 -780 Descending Boston Center
04:39PM 42.8167 -71.4183 87° East 257 296 2,600 -900 Descending Boston Center
04:40PM 42.8394 -71.3756 54° Northeast 148 170 2,100 -720 Descending Boston Center
04:41PM 42.8750 -71.4003 333° Northwest 103 119 1,300 -720 Descending Boston Center
04:42PM 42.9064 -71.4197 336° Northwest 114 131 700 -420 Descending Boston Center
04:43PM 42.9378 -71.4361 339° North 119 137 500 4,140 Descending Boston Center
04:44PM 42.9692 -71.4583 333° Northwest 119 137 9,000 4,320 Climbing Boston Center
04:45PM 43.0008 -71.4778 336° Northwest 119 137 9,000  Level Boston Center
04:47PM 42.9328 -71.4358 166° South  Level Estimated
04:54PM 42.9328 -71.4358 166° South  Level Estimated
04:55PM 42.9328 -71.4358 166° South  Level Estimated
04:56PM 42.9328 -71.4358 166° South  Level Estimated
04:57PM 42.9328 -71.4358 166° South  Level Estimated
04:58PM 42.9328 -71.4358 166° South  Level Estimated
04:59PM 42.9328 -71.4358 166° South  Level Estimated